createdAt,value
2022-10-09T00:01:03.406Z,100.00
2022-10-09T00:03:31.502Z,100.00
2022-10-09T00:05:59.405Z,100.00
2022-10-09T00:08:27.509Z,100.00
2022-10-09T00:10:55.771Z,100.00
2022-10-09T00:13:23.754Z,100.00
2022-10-09T00:15:53.367Z,100.00
2022-10-09T00:18:21.248Z,100.00
2022-10-09T00:20:49.193Z,100.00
2022-10-09T00:23:18.438Z,100.00
2022-10-09T00:25:54.379Z,100.00
2022-10-09T00:28:22.972Z,100.00
2022-10-09T00:30:51.626Z,100.00
2022-10-09T00:33:21.699Z,100.00
2022-10-09T00:35:50.458Z,100.00
2022-10-09T00:38:18.441Z,100.00
2022-10-09T00:40:46.399Z,100.00
2022-10-09T00:43:18.353Z,100.00
2022-10-09T00:45:51.270Z,100.00
2022-10-09T00:48:21.720Z,100.00
2022-10-09T00:50:53.895Z,100.00
2022-10-09T00:53:25.683Z,100.00
2022-10-09T00:55:54.155Z,100.00
2022-10-09T00:58:22.955Z,100.00
2022-10-09T01:00:51.125Z,100.00
2022-10-09T01:03:20.511Z,100.00
2022-10-09T01:05:59.657Z,100.00
2022-10-09T01:08:32.012Z,100.00
2022-10-09T01:11:08.587Z,100.00
2022-10-09T01:13:44.029Z,100.00
2022-10-09T01:16:23.868Z,100.00
2022-10-09T01:18:59.406Z,100.00
2022-10-09T01:21:33.088Z,100.00
2022-10-09T01:24:16.103Z,100.00
2022-10-09T01:27:04.416Z,100.00
2022-10-09T01:29:37.325Z,100.00
2022-10-09T01:32:06.775Z,100.00
2022-10-09T01:34:34.975Z,100.00
2022-10-09T01:37:04.589Z,100.00
2022-10-09T01:39:35.202Z,100.00
2022-10-09T01:42:05.843Z,100.00
2022-10-09T01:44:34.752Z,100.00
2022-10-09T01:47:04.566Z,100.00
2022-10-09T01:49:40.643Z,100.00
2022-10-09T01:52:18.116Z,100.00
2022-10-09T01:54:57.245Z,100.00
2022-10-09T01:57:34.018Z,100.00
2022-10-09T02:00:05.213Z,100.00
2022-10-09T02:02:42.093Z,100.00
2022-10-09T02:05:12.475Z,100.00
2022-10-09T02:07:41.057Z,100.00
2022-10-09T02:10:10.462Z,100.00
2022-10-09T02:12:44.522Z,100.00
2022-10-09T02:15:13.376Z,100.00
2022-10-09T02:17:47.579Z,100.00
2022-10-09T02:20:21.724Z,100.00
2022-10-09T02:22:50.751Z,100.00
2022-10-09T02:25:19.873Z,100.00
2022-10-09T02:27:49.352Z,100.00
2022-10-09T02:30:19.081Z,100.00
2022-10-09T02:32:47.263Z,100.00
2022-10-09T02:35:15.508Z,97.86
2022-10-09T02:37:43.375Z,96.80
2022-10-09T02:40:12.316Z,96.65
2022-10-09T02:42:40.211Z,98.76
2022-10-09T02:45:11.119Z,100.00
2022-10-09T02:47:38.987Z,100.00
2022-10-09T02:50:08.191Z,100.00
2022-10-09T02:52:36.135Z,100.00
2022-10-09T02:55:04.283Z,100.00
2022-10-09T02:57:32.237Z,100.00
2022-10-09T03:00:00.020Z,100.00
2022-10-09T03:02:29.494Z,100.00
2022-10-09T03:04:57.381Z,100.00
2022-10-09T03:07:25.216Z,100.00
2022-10-09T03:09:53.101Z,100.00
2022-10-09T03:12:22.118Z,100.00
2022-10-09T03:14:50.035Z,100.00
2022-10-09T03:17:17.827Z,100.00
2022-10-09T03:19:47.008Z,100.00
2022-10-09T03:22:14.757Z,100.00
2022-10-09T03:24:42.520Z,100.00
2022-10-09T03:27:10.255Z,100.00
2022-10-09T03:29:38.020Z,100.00
2022-10-09T03:32:05.829Z,100.00
2022-10-09T03:34:33.698Z,100.00
2022-10-09T03:37:02.862Z,100.00
2022-10-09T03:39:30.772Z,100.00
2022-10-09T03:41:58.939Z,100.00
2022-10-09T03:44:26.677Z,100.00
2022-10-09T03:46:55.237Z,100.00
2022-10-09T03:49:23.118Z,100.00
2022-10-09T03:51:50.988Z,100.00
2022-10-09T03:54:20.193Z,100.00
2022-10-09T03:56:48.038Z,100.00
2022-10-09T03:59:15.876Z,100.00
2022-10-09T04:01:43.733Z,100.00
2022-10-09T04:04:11.494Z,100.00
2022-10-09T04:06:39.376Z,100.00
2022-10-09T04:09:07.180Z,100.00
2022-10-09T04:11:36.350Z,100.00
2022-10-09T04:14:04.820Z,100.00
2022-10-09T04:16:32.657Z,100.00
2022-10-09T04:19:00.517Z,100.00
2022-10-09T04:21:28.344Z,100.00
2022-10-09T04:23:56.130Z,100.00
2022-10-09T04:26:24.316Z,100.00
2022-10-09T04:28:53.704Z,100.00
2022-10-09T04:31:21.635Z,100.00
2022-10-09T04:33:49.479Z,100.00
2022-10-09T04:36:17.260Z,100.00
2022-10-09T04:38:45.060Z,100.00
2022-10-09T04:41:13.035Z,100.00
2022-10-09T04:43:40.878Z,100.00
2022-10-09T04:46:13.030Z,100.00
2022-10-09T04:48:41.919Z,100.00
2022-10-09T04:51:10.464Z,100.00
2022-10-09T04:53:39.160Z,100.00
2022-10-09T04:56:09.962Z,100.00
2022-10-09T04:58:40.551Z,100.00
2022-10-09T05:01:11.460Z,100.00
2022-10-09T05:03:39.512Z,100.00
2022-10-09T05:06:09.853Z,100.00
2022-10-09T05:08:38.685Z,100.00
2022-10-09T05:11:08.373Z,100.00
2022-10-09T05:13:38.418Z,100.00
2022-10-09T05:16:08.658Z,100.00
2022-10-09T05:18:43.075Z,100.00
2022-10-09T05:21:11.279Z,100.00
2022-10-09T05:23:39.135Z,100.00
2022-10-09T05:26:09.438Z,100.00
2022-10-09T05:28:37.675Z,100.00
2022-10-09T05:31:06.967Z,100.00
2022-10-09T05:33:35.226Z,100.00
2022-10-09T05:36:06.286Z,100.00
2022-10-09T05:38:34.992Z,100.00
2022-10-09T05:41:05.284Z,100.00
2022-10-09T05:43:35.891Z,100.00
2022-10-09T05:46:08.642Z,100.00
2022-10-09T05:48:37.069Z,100.00
2022-10-09T05:51:11.545Z,100.00
2022-10-09T05:53:40.024Z,100.00
2022-10-09T05:56:16.298Z,100.00
2022-10-09T05:58:45.463Z,100.00
2022-10-09T06:01:13.291Z,100.00
2022-10-09T06:03:41.422Z,100.00
2022-10-09T06:06:10.811Z,100.00
2022-10-09T06:08:39.426Z,100.00
2022-10-09T06:11:11.969Z,100.00
2022-10-09T06:13:39.959Z,100.00
2022-10-09T06:16:08.638Z,100.00
2022-10-09T06:18:36.501Z,100.00
2022-10-09T06:21:04.870Z,100.00
2022-10-09T06:23:34.814Z,100.00
2022-10-09T06:26:06.146Z,100.00
2022-10-09T06:28:35.286Z,100.00
2022-10-09T06:31:04.001Z,100.00
2022-10-09T06:33:33.269Z,100.00
2022-10-09T06:36:09.828Z,100.00
2022-10-09T06:38:40.172Z,100.00
2022-10-09T06:41:09.987Z,100.00
2022-10-09T06:43:38.426Z,100.00
2022-10-09T06:46:08.196Z,100.00
2022-10-09T06:48:38.426Z,100.00
2022-10-09T06:51:08.470Z,100.00
2022-10-09T06:53:37.430Z,100.00
2022-10-09T06:56:08.628Z,100.00
2022-10-09T06:58:36.572Z,100.00
2022-10-09T07:01:06.521Z,100.00
2022-10-09T07:03:34.741Z,100.00
2022-10-09T07:06:10.766Z,100.00
2022-10-09T07:08:39.347Z,100.00
2022-10-09T07:11:13.300Z,100.00
2022-10-09T07:13:41.855Z,100.00
2022-10-09T07:16:10.581Z,100.00
2022-10-09T07:18:39.322Z,100.00
2022-10-09T07:21:09.520Z,100.00
2022-10-09T07:23:37.811Z,100.00
2022-10-09T07:26:12.951Z,100.00
2022-10-09T07:28:41.577Z,100.00
2022-10-09T07:31:10.042Z,100.00
2022-10-09T07:33:38.347Z,100.00
2022-10-09T07:36:07.876Z,100.00
2022-10-09T07:38:35.869Z,100.00
2022-10-09T07:41:06.912Z,100.00
2022-10-09T07:43:37.974Z,100.00
2022-10-09T07:46:07.784Z,100.00
2022-10-09T07:48:36.380Z,100.00
2022-10-09T07:51:09.941Z,100.00
2022-10-09T07:53:38.769Z,100.00
2022-10-09T07:56:07.716Z,100.00
2022-10-09T07:58:36.873Z,100.00
2022-10-09T08:01:06.111Z,100.00
2022-10-09T08:03:35.179Z,100.00
2022-10-09T08:06:03.523Z,100.00
2022-10-09T08:08:31.427Z,100.00
2022-10-09T08:10:59.299Z,100.00
2022-10-09T08:13:27.148Z,100.00
2022-10-09T08:15:59.464Z,100.00
2022-10-09T08:18:27.479Z,100.00
2022-10-09T08:20:59.786Z,100.00
2022-10-09T08:23:28.043Z,100.00
2022-10-09T08:25:56.201Z,100.00
2022-10-09T08:28:24.487Z,100.00
2022-10-09T08:30:52.612Z,100.00
2022-10-09T08:33:23.451Z,100.00
2022-10-09T08:35:51.880Z,100.00
2022-10-09T08:38:45.058Z,100.00
2022-10-09T08:41:12.632Z,100.00
2022-10-09T08:43:46.341Z,100.00
2022-10-09T08:46:21.736Z,100.00
2022-10-09T08:48:53.388Z,100.00
2022-10-09T08:51:25.291Z,100.00
2022-10-09T08:54:00.645Z,100.00
2022-10-09T08:56:31.399Z,100.00
2022-10-09T08:58:59.986Z,100.00
2022-10-09T09:01:37.369Z,100.00
2022-10-09T09:04:42.189Z,100.00
2022-10-09T09:07:20.708Z,100.00
2022-10-09T09:09:57.762Z,100.00
2022-10-09T09:12:34.144Z,100.00
2022-10-09T09:15:19.513Z,100.00
2022-10-09T09:17:55.961Z,99.33
2022-10-09T09:20:28.605Z,99.44
2022-10-09T09:34:35.713Z,96.98
2022-10-09T09:37:03.707Z,96.73
2022-10-09T09:42:24.366Z,94.78
2022-10-09T09:44:59.579Z,94.85
2022-10-09T09:47:34.189Z,93.18
2022-10-09T09:50:06.194Z,92.20
2022-10-09T09:52:37.590Z,90.11
2022-10-09T09:55:06.924Z,90.95
2022-10-09T09:57:37.746Z,90.06
2022-10-09T10:00:20.944Z,88.10
2022-10-09T10:02:49.433Z,87.83
2022-10-09T10:05:23.927Z,87.04
2022-10-09T10:07:51.953Z,87.40
2022-10-09T10:10:25.328Z,85.88
2022-10-09T10:12:57.569Z,86.43
2022-10-09T10:15:28.248Z,85.38
2022-10-09T10:18:00.809Z,84.43
2022-10-09T10:20:32.601Z,84.65
2022-10-09T10:23:01.819Z,84.05
2022-10-09T10:25:34.500Z,84.13
2022-10-09T10:28:07.232Z,82.49
2022-10-09T10:30:38.716Z,80.41
2022-10-09T10:33:14.235Z,80.63
2022-10-09T10:35:44.955Z,68.62
2022-10-09T10:38:16.460Z,65.58
2022-10-09T10:40:49.093Z,66.15
2022-10-09T10:43:29.617Z,65.97
2022-10-09T10:46:01.032Z,61.70
2022-10-09T10:48:31.838Z,62.53
2022-10-09T10:51:09.632Z,61.64
2022-10-09T10:53:59.393Z,62.36
2022-10-09T10:56:32.052Z,62.38
2022-10-09T10:59:20.244Z,61.98
2022-10-09T11:01:55.015Z,60.78
2022-10-09T11:04:40.274Z,59.97
2022-10-09T11:07:21.238Z,59.52
2022-10-09T11:09:58.764Z,60.32
2022-10-09T11:12:47.898Z,59.51
2022-10-09T11:15:21.259Z,60.38
2022-10-09T11:17:56.118Z,58.79
2022-10-09T11:20:59.298Z,59.64
2022-10-09T11:23:40.930Z,59.48
2022-10-09T11:26:18.444Z,59.30
2022-10-09T11:28:53.117Z,59.31
2022-10-09T11:31:28.166Z,58.95
2022-10-09T11:34:01.691Z,58.60
2022-10-09T11:36:35.310Z,57.33
2022-10-09T11:39:07.199Z,58.20
2022-10-09T11:41:37.026Z,58.33
2022-10-09T11:44:25.597Z,58.56
2022-10-09T11:47:02.200Z,58.99
2022-10-09T11:49:38.801Z,59.42
2022-10-09T11:52:17.526Z,59.42
2022-10-09T11:54:46.803Z,57.98
2022-10-09T11:57:15.656Z,60.26
2022-10-09T11:59:43.633Z,60.23
2022-10-09T12:02:25.353Z,60.78
2022-10-09T12:04:55.136Z,57.82
2022-10-09T12:07:29.288Z,57.41
2022-10-09T12:10:06.182Z,56.35
2022-10-09T12:12:37.763Z,57.14
2022-10-09T12:15:24.311Z,59.61
2022-10-09T12:17:52.264Z,57.06
2022-10-09T12:20:22.391Z,57.06
2022-10-09T12:23:14.233Z,56.24
2022-10-09T12:25:46.843Z,55.48
2022-10-09T12:28:26.962Z,55.57
2022-10-09T12:30:56.571Z,55.78
2022-10-09T12:33:27.285Z,56.67
2022-10-09T12:36:06.310Z,55.27
2022-10-09T12:38:34.190Z,55.72
2022-10-09T12:41:07.015Z,55.67
2022-10-09T12:43:36.423Z,55.49
2022-10-09T12:46:05.169Z,55.68
2022-10-09T12:48:39.833Z,55.34
2022-10-09T12:51:16.241Z,56.19
2022-10-09T12:53:48.227Z,56.27
2022-10-09T12:56:22.372Z,55.87
2022-10-09T12:58:50.674Z,54.48
2022-10-09T13:01:19.112Z,54.67
2022-10-09T13:03:55.447Z,54.70
2022-10-09T13:06:25.803Z,54.24
2022-10-09T13:08:55.082Z,53.54
2022-10-09T13:11:32.423Z,54.24
2022-10-09T13:14:00.871Z,52.98
2022-10-09T13:16:40.719Z,52.23
2022-10-09T13:19:25.377Z,51.90
2022-10-09T13:22:20.884Z,51.05
2022-10-09T13:24:53.073Z,51.50
2022-10-09T13:27:26.270Z,50.73
2022-10-09T13:29:54.651Z,51.50
2022-10-09T13:32:24.196Z,51.34
2022-10-09T13:34:54.979Z,50.83
2022-10-09T13:37:24.539Z,50.89
2022-10-09T13:39:53.427Z,50.75
2022-10-09T13:42:25.154Z,51.19
2022-10-09T13:44:53.120Z,51.30
2022-10-09T13:47:24.437Z,50.86
2022-10-09T13:49:52.779Z,49.97
2022-10-09T13:52:20.698Z,50.68
2022-10-09T13:54:48.557Z,50.72
2022-10-09T13:57:16.403Z,49.97
2022-10-09T13:59:45.729Z,50.90
2022-10-09T14:02:13.889Z,50.65
2022-10-09T14:04:42.044Z,51.27
2022-10-09T14:07:10.000Z,50.71
2022-10-09T14:09:38.045Z,50.48
2022-10-09T14:12:05.977Z,50.91
2022-10-09T14:14:33.929Z,50.83
2022-10-09T14:17:03.136Z,50.71
2022-10-09T14:19:30.987Z,50.66
2022-10-09T14:21:59.486Z,50.29
2022-10-09T14:24:27.404Z,49.94
2022-10-09T14:26:55.267Z,49.67
2022-10-09T14:29:23.205Z,49.96
2022-10-09T14:31:51.346Z,51.35
2022-10-09T14:34:20.719Z,50.74
2022-10-09T14:36:48.880Z,50.90
2022-10-09T14:39:17.155Z,50.39
2022-10-09T14:41:45.835Z,50.39
2022-10-09T14:44:13.919Z,49.71
2022-10-09T14:46:41.838Z,49.23
2022-10-09T14:49:09.712Z,50.08
2022-10-09T14:51:40.421Z,50.45
2022-10-09T14:54:09.781Z,50.60
2022-10-09T14:56:37.834Z,51.01
2022-10-09T14:59:06.374Z,50.15
2022-10-09T15:01:35.382Z,50.28
2022-10-09T15:04:04.274Z,50.05
2022-10-09T15:06:32.268Z,50.05
2022-10-09T15:09:05.390Z,49.86
2022-10-09T15:11:34.785Z,51.23
2022-10-09T15:14:02.915Z,50.17
2022-10-09T15:16:31.072Z,49.97
2022-10-09T15:18:59.139Z,51.17
2022-10-09T15:21:29.240Z,50.67
2022-10-09T15:23:58.869Z,52.29
2022-10-09T15:26:29.645Z,50.65
2022-10-09T15:28:57.837Z,50.64
2022-10-09T15:31:27.883Z,50.92
2022-10-09T15:33:57.404Z,50.76
2022-10-09T15:36:26.170Z,51.70
2022-10-09T15:38:54.205Z,51.67
2022-10-09T15:41:25.031Z,51.94
2022-10-09T15:43:56.521Z,52.34
2022-10-09T15:46:25.163Z,52.58
2022-10-09T15:48:53.496Z,52.81
2022-10-09T15:51:22.351Z,53.04
2022-10-09T15:53:52.156Z,54.08
2022-10-09T15:56:22.410Z,54.08
2022-10-09T15:58:51.066Z,54.33
2022-10-09T16:01:21.438Z,54.43
2022-10-09T16:03:49.693Z,55.25
2022-10-09T16:06:20.358Z,56.45
2022-10-09T16:08:48.887Z,57.26
2022-10-09T16:11:21.783Z,58.25
2022-10-09T16:13:53.147Z,58.14
2022-10-09T16:16:25.047Z,58.36
2022-10-09T16:18:53.425Z,57.45
2022-10-09T16:21:23.993Z,57.27
2022-10-09T16:23:57.297Z,58.09
2022-10-09T16:26:25.440Z,58.79
2022-10-09T16:28:53.380Z,59.46
2022-10-09T16:31:24.706Z,59.12
2022-10-09T16:33:52.794Z,59.93
2022-10-09T16:36:20.640Z,59.78
2022-10-09T16:38:48.842Z,60.25
2022-10-09T16:41:19.644Z,60.37
2022-10-09T16:43:48.994Z,61.14
2022-10-09T16:46:20.092Z,61.75
2022-10-09T16:48:50.352Z,60.80
2022-10-09T16:51:21.911Z,61.98
2022-10-09T16:53:50.633Z,63.17
2022-10-09T16:56:21.125Z,64.55
2022-10-09T16:58:48.864Z,65.14
2022-10-09T17:01:17.395Z,65.58
2022-10-09T17:03:45.410Z,66.17
2022-10-09T17:06:19.626Z,66.47
2022-10-09T17:08:47.600Z,66.69
2022-10-09T17:11:17.423Z,67.69
2022-10-09T17:13:45.798Z,67.68
2022-10-09T17:16:18.270Z,68.09
2022-10-09T17:18:46.859Z,68.16
2022-10-09T17:21:17.986Z,68.57
2022-10-09T17:23:46.733Z,68.72
2022-10-09T17:26:16.816Z,68.97
2022-10-09T17:28:45.664Z,69.76
2022-10-09T17:31:16.847Z,69.58
2022-10-09T17:33:48.174Z,69.77
2022-10-09T17:36:20.681Z,70.01
2022-10-09T17:38:49.785Z,70.28
2022-10-09T17:41:19.565Z,71.13
2022-10-09T17:43:47.424Z,71.71
2022-10-09T17:46:16.024Z,72.03
2022-10-09T17:48:48.301Z,74.17
2022-10-09T17:51:19.895Z,75.96
2022-10-09T17:53:48.110Z,75.36
2022-10-09T17:56:16.533Z,75.15
2022-10-09T17:58:47.320Z,76.55
2022-10-09T18:01:16.314Z,76.52
2022-10-09T18:03:44.995Z,76.42
2022-10-09T18:06:14.558Z,75.66
2022-10-09T18:08:44.471Z,76.77
2022-10-09T18:11:14.782Z,78.26
2022-10-09T18:13:43.415Z,79.13
2022-10-09T18:16:14.440Z,78.43
2022-10-09T18:18:42.420Z,79.77
2022-10-09T18:21:16.860Z,80.31
2022-10-09T18:23:46.747Z,80.88
2022-10-09T18:26:17.101Z,81.10
2022-10-09T18:28:48.208Z,81.05
2022-10-09T18:31:19.181Z,81.17
2022-10-09T18:33:47.576Z,81.03
2022-10-09T18:36:19.853Z,80.81
2022-10-09T18:38:50.988Z,82.98
2022-10-09T18:41:20.271Z,82.29
2022-10-09T18:43:48.891Z,83.08
2022-10-09T18:46:18.690Z,82.48
2022-10-09T18:48:47.184Z,82.58
2022-10-09T18:51:17.505Z,82.22
2022-10-09T18:53:52.633Z,82.92
2022-10-09T18:56:22.276Z,83.47
2022-10-09T18:58:51.955Z,84.43
2022-10-09T19:01:20.171Z,84.02
2022-10-09T19:03:50.103Z,85.42
2022-10-09T19:06:18.681Z,85.78
2022-10-09T19:08:47.359Z,85.92
2022-10-09T19:11:16.882Z,84.98
2022-10-09T19:13:45.718Z,85.93
2022-10-09T19:16:13.692Z,85.72
2022-10-09T19:18:41.601Z,86.24
2022-10-09T19:21:13.382Z,85.58
2022-10-09T19:23:41.312Z,86.34
2022-10-09T19:26:09.214Z,86.67
2022-10-09T19:28:39.285Z,87.37
2022-10-09T19:31:08.566Z,87.84
2022-10-09T19:33:37.818Z,87.20
2022-10-09T19:36:06.541Z,88.32
2022-10-09T19:38:34.495Z,88.91
2022-10-09T19:41:04.961Z,89.17
2022-10-09T19:43:32.970Z,88.50
2022-10-09T19:46:07.852Z,89.45
2022-10-09T19:48:36.404Z,89.98
2022-10-09T19:51:07.406Z,90.62
2022-10-09T19:53:35.849Z,91.04
2022-10-09T19:56:09.336Z,91.02
2022-10-09T19:58:40.563Z,91.46
2022-10-09T20:01:10.994Z,90.11
2022-10-09T20:03:38.795Z,90.35
2022-10-09T20:06:08.550Z,91.01
2022-10-09T20:08:36.560Z,92.76
2022-10-09T20:11:06.728Z,91.46
2022-10-09T20:13:37.639Z,93.05
2022-10-09T20:16:08.425Z,94.24
2022-10-09T20:18:39.428Z,93.08
2022-10-09T20:21:07.473Z,93.80
2022-10-09T20:23:35.318Z,93.47
2022-10-09T20:26:05.596Z,93.03
2022-10-09T20:28:34.589Z,92.39
2022-10-09T20:31:06.387Z,93.15
2022-10-09T20:33:34.780Z,93.14
2022-10-09T20:36:04.966Z,96.56
2022-10-09T20:38:32.875Z,98.28
2022-10-09T20:41:04.683Z,100.00
2022-10-09T20:43:32.473Z,100.00
2022-10-09T20:46:00.318Z,99.87
2022-10-09T20:48:28.165Z,99.83
2022-10-09T20:50:56.017Z,99.76
2022-10-09T20:53:25.188Z,99.55
2022-10-09T20:55:53.066Z,98.64
2022-10-09T20:58:20.880Z,98.11
2022-10-09T21:00:48.702Z,96.91
2022-10-09T21:03:16.656Z,95.77
2022-10-09T21:05:44.888Z,95.07
2022-10-09T21:08:12.793Z,94.61
2022-10-09T21:10:45.018Z,94.15
2022-10-09T21:13:13.256Z,93.83
2022-10-09T21:15:44.965Z,94.41
2022-10-09T21:18:13.420Z,93.89
2022-10-09T21:20:43.770Z,93.49
2022-10-09T21:23:13.591Z,94.83
2022-10-09T21:25:49.911Z,95.04
2022-10-09T21:28:18.280Z,94.34
2022-10-09T21:30:46.210Z,93.43
2022-10-09T21:33:14.691Z,93.20
2022-10-09T21:35:44.890Z,94.52
2022-10-09T21:38:14.273Z,94.69
2022-10-09T21:40:42.894Z,94.32
2022-10-09T21:43:12.187Z,93.77
2022-10-09T21:45:41.263Z,93.86
2022-10-09T21:48:09.649Z,92.72
2022-10-09T21:50:37.581Z,93.54
2022-10-09T21:53:05.798Z,94.47
2022-10-09T21:55:33.771Z,94.96
2022-10-09T21:58:01.633Z,94.77
2022-10-09T22:00:31.035Z,94.85
2022-10-09T22:02:58.895Z,94.31
2022-10-09T22:05:26.795Z,94.10
2022-10-09T22:07:54.622Z,94.43
2022-10-09T22:10:22.489Z,95.39
2022-10-09T22:12:50.558Z,94.97
2022-10-09T22:15:18.664Z,94.43
2022-10-09T22:17:47.927Z,93.91
2022-10-09T22:20:15.744Z,95.07
2022-10-09T22:22:43.675Z,94.92
2022-10-09T22:25:11.778Z,95.80
2022-10-09T22:27:39.667Z,96.61
2022-10-09T22:30:09.059Z,95.51
2022-10-09T22:32:36.926Z,96.36
2022-10-09T22:35:06.947Z,94.85
2022-10-09T22:37:34.823Z,94.20
2022-10-09T22:40:02.910Z,93.84
2022-10-09T22:42:30.769Z,94.07
2022-10-09T22:44:58.632Z,94.39
2022-10-09T22:47:26.627Z,94.60
2022-10-09T22:49:54.418Z,93.78
2022-10-09T22:52:23.670Z,92.59
2022-10-09T22:54:51.526Z,92.26
2022-10-09T22:57:19.628Z,92.42
2022-10-09T22:59:47.690Z,92.36
2022-10-09T23:02:15.661Z,92.64
2022-10-09T23:04:43.514Z,92.45
2022-10-09T23:07:11.349Z,93.85
2022-10-09T23:09:40.909Z,93.00
2022-10-09T23:12:08.764Z,92.50
2022-10-09T23:14:36.696Z,92.98
2022-10-09T23:17:04.661Z,92.54
2022-10-09T23:19:33.932Z,92.68
2022-10-09T23:22:01.713Z,93.03
2022-10-09T23:24:29.736Z,93.40
2022-10-09T23:26:58.925Z,93.97
2022-10-09T23:29:26.784Z,93.86
2022-10-09T23:31:54.633Z,94.19
2022-10-09T23:34:22.512Z,93.72
2022-10-09T23:36:50.391Z,94.36
2022-10-09T23:39:18.260Z,95.01
2022-10-09T23:41:46.134Z,95.05
2022-10-09T23:44:17.812Z,97.13
2022-10-09T23:46:49.199Z,96.23
2022-10-09T23:49:17.210Z,97.38
2022-10-09T23:51:45.075Z,96.74
2022-10-09T23:54:12.932Z,95.81
2022-10-09T23:56:40.819Z,96.01
2022-10-09T23:59:08.688Z,96.59
